Scroll down
FLIGHT INFORMATION
PMDG Flight Operations

PFO831

At Arrival Gate

SCEL
 YSSY
DATE: 2018-08-31
GATE: 12
GATE DEPARTURE: 04:59
TAKEOFF: 05:19
DATE: 2018-08-31
GATE: I61
LANDING: 19:22
GATE ARRIVAL: 19:29
FLIGHT DATA
Crew: 
Speed: 
511 kts
Altitude: 
40,004 ft
Stage Length: 
6,123.0 nm
Block Time: 
14.5 hrs
Flight Time: 
14.1 hrs
Fuel Used: 
331,830 lb
Cleared Route: 
TRACK DATA
50,000 ft 1,000 kts
AIRCRAFT INFO AND CUMULATIVE STATS
Aircraft Type: 
B744ER
Registration: 
SELCAL: 
MSN/LN: 
0 / 1
Total Flights: 
7
Total Block Time: 
36.2 hrs
Total Flight Time: 
34 hrs
Total Fuel Time: 
763,013 lb
DATALINK LOG | Newest first | Current as of: 2021-01-20 23:20:44
LABEL SEQUENCE CONTENT Dn/Up
QD290519:29 52.9▼ Dn
QC221419:22▼ Dn
GA4510GATE I61▲ Up
GR4344YSSY▼ Dn
2U4006YSSY 311700Z 34007KT CAVOK 12/08 Q1003▲ Up
2S3820YSSY▼ Dn
QB193505:19▼ Dn
QA594304:59 384.7▼ Dn
2U4727SCEL 310400Z 19003KT 140V220 4000 BR FEW150 08/07 Q1018 BECMG 0800 FG BKN002▲ Up
2S4616SCEL▼ Dn


AIRCRAFT HISTORY
FLIGHT DATE FLIGHT NO. ORIGIN DESTINATION CLEARED ROUTE BLOCK TIME FLIGHT TIME FUEL USED PILOT
2019-03-17PFO519KCOS KATL KCOS BRK JEWLS GCK PER RZC MEM HUTCC KNSAW RUSSA KATL2.7 hrs2.3 hrs46,193 lbChemtrails
2019-03-11PFO310KDEN KCOS KDEN LUFSE ADANE BRK KCOS0.5 hrs0.3 hrs8,751 lbKyle Weber
2019-03-09PFO519KPDX KDEN KPDX RIVRR COSUG HADIS WHAMY IMB BOI PIH OCS GWEDO BDEEE FRNCH SKARF TOMSN ALISE DORKE ARCHY BABAA HIMOM KALME WASKL CELBI RW35L2.6 hrs2 hrs44,888 lbChemtrails
2019-01-05PFO213KSAN KPDX WNFLD KERNL GYWNN PADRZ HFMNN CHKNN RIDDL LANDO EHF DUCKE GALLO RENAA MOXEE PORTL TMBRS VANTZ FLOWR WIDMR ROAGE ICEAX2.1 hrs1.8 hrs40,951 lbTom Landry
2018-12-03PFO1203KLAX KSAN SLI0.9 hrs0.5 hrs11,934 lbKyle Weber
2018-08-31PFO901YSSY KLAX 13.5 hrs13 hrs278,467 lbKyle Rodgers
2018-08-31PFO831SCEL YSSY 14.5 hrs14.1 hrs331,830 lbKyle Rodgers